sensor_id;sensor_type;location;lat;lon;timestamp;pressure;altitude;pressure_sealevel;temperature;humidity
26719;BME280;14326;50.794;6.060;2023-04-15T00:02:38;98769.31;;;5.05;91.46
26719;BME280;14326;50.794;6.060;2023-04-15T00:05:28;98771.19;;;5.12;92.25
26719;BME280;14326;50.794;6.060;2023-04-15T00:08:30;98779.19;;;5.19;92.03
26719;BME280;14326;50.794;6.060;2023-04-15T00:11:10;98769.63;;;5.24;91.92
26719;BME280;14326;50.794;6.060;2023-04-15T00:13:50;98771.47;;;5.28;91.95
26719;BME280;14326;50.794;6.060;2023-04-15T00:16:30;98757.56;;;5.39;92.63
26719;BME280;14326;50.794;6.060;2023-04-15T00:21:51;98764.63;;;5.43;92.90
26719;BME280;14326;50.794;6.060;2023-04-15T00:24:21;98760.31;;;5.46;93.06
26719;BME280;14326;50.794;6.060;2023-04-15T00:27:05;98759.50;;;5.50;93.15
26719;BME280;14326;50.794;6.060;2023-04-15T00:29:57;98753.44;;;5.57;93.90
26719;BME280;14326;50.794;6.060;2023-04-15T00:32:46;98760.53;;;5.61;94.05
26719;BME280;14326;50.794;6.060;2023-04-15T00:35:25;98750.06;;;5.67;93.64
26719;BME280;14326;50.794;6.060;2023-04-15T00:38:09;98750.03;;;5.64;94.10
26719;BME280;14326;50.794;6.060;2023-04-15T00:40:43;98753.47;;;5.59;93.53
26719;BME280;14326;50.794;6.060;2023-04-15T00:43:13;98751.69;;;5.58;93.87
26719;BME280;14326;50.794;6.060;2023-04-15T00:45:48;98744.78;;;5.67;94.05
26719;BME280;14326;50.794;6.060;2023-04-15T00:48:36;98748.38;;;5.72;93.97
26719;BME280;14326;50.794;6.060;2023-04-15T00:51:31;98739.59;;;5.73;93.80
26719;BME280;14326;50.794;6.060;2023-04-15T00:54:09;98740.47;;;5.72;93.80
26719;BME280;14326;50.794;6.060;2023-04-15T00:57:00;98743.09;;;5.72;93.81
26719;BME280;14326;50.794;6.060;2023-04-15T00:59:49;98742.25;;;5.73;93.68
26719;BME280;14326;50.794;6.060;2023-04-15T01:02:24;98744.88;;;5.73;93.22
26719;BME280;14326;50.794;6.060;2023-04-15T01:04:51;98741.28;;;5.68;93.48
26719;BME280;14326;50.794;6.060;2023-04-15T01:07:18;98741.41;;;5.77;93.66
26719;BME280;14326;50.794;6.060;2023-04-15T01:09:54;98742.41;;;5.86;93.08
26719;BME280;14326;50.794;6.060;2023-04-15T01:12:27;98744.84;;;5.70;93.05
26719;BME280;14326;50.794;6.060;2023-04-15T01:14:54;98757.09;;;5.67;92.37
26719;BME280;14326;50.794;6.060;2023-04-15T01:17:23;98750.84;;;5.60;93.44
26719;BME280;14326;50.794;6.060;2023-04-15T01:19:54;98743.91;;;5.65;93.55
26719;BME280;14326;50.794;6.060;2023-04-15T01:22:31;98740.41;;;5.68;94.07
26719;BME280;14326;50.794;6.060;2023-04-15T01:28:07;98730.84;;;5.74;93.13
26719;BME280;14326;50.794;6.060;2023-04-15T01:30:52;98732.53;;;5.69;93.16
26719;BME280;14326;50.794;6.060;2023-04-15T01:33:35;98741.34;;;5.70;93.46
26719;BME280;14326;50.794;6.060;2023-04-15T01:36:10;98735.09;;;5.65;93.28
26719;BME280;14326;50.794;6.060;2023-04-15T01:38:51;98739.38;;;5.57;92.91
26719;BME280;14326;50.794;6.060;2023-04-15T01:41:43;98737.44;;;5.45;92.43
26719;BME280;14326;50.794;6.060;2023-04-15T01:44:53;98744.31;;;5.34;93.01
26719;BME280;14326;50.794;6.060;2023-04-15T01:50:51;98738.28;;;5.41;93.48
26719;BME280;14326;50.794;6.060;2023-04-15T01:54:05;98737.25;;;5.33;93.71
26719;BME280;14326;50.794;6.060;2023-04-15T01:56:59;98734.56;;;5.28;94.24
26719;BME280;14326;50.794;6.060;2023-04-15T01:59:40;98741.59;;;5.29;94.19
26719;BME280;14326;50.794;6.060;2023-04-15T02:02:22;98736.16;;;5.20;94.03
26719;BME280;14326;50.794;6.060;2023-04-15T02:04:49;98742.22;;;5.15;94.91
26719;BME280;14326;50.794;6.060;2023-04-15T02:07:15;98731.75;;;5.18;94.68
26719;BME280;14326;50.794;6.060;2023-04-15T02:09:42;98742.34;;;5.21;95.09
26719;BME280;14326;50.794;6.060;2023-04-15T02:12:10;98740.41;;;5.11;95.69
26719;BME280;14326;50.794;6.060;2023-04-15T02:14:40;98741.28;;;5.10;95.61
26719;BME280;14326;50.794;6.060;2023-04-15T02:17:32;98738.63;;;5.10;95.54
26719;BME280;14326;50.794;6.060;2023-04-15T02:20:06;98740.41;;;5.11;96.06
26719;BME280;14326;50.794;6.060;2023-04-15T02:22:49;98733.47;;;5.16;95.58
26719;BME280;14326;50.794;6.060;2023-04-15T02:25:25;98739.66;;;5.18;95.89
26719;BME280;14326;50.794;6.060;2023-04-15T02:27:57;98735.38;;;5.26;95.74
26719;BME280;14326;50.794;6.060;2023-04-15T02:30:24;98745.84;;;5.21;95.65
26719;BME280;14326;50.794;6.060;2023-04-15T02:32:56;98738.66;;;5.11;95.99
26719;BME280;14326;50.794;6.060;2023-04-15T02:35:31;98738.63;;;5.10;96.35
26719;BME280;14326;50.794;6.060;2023-04-15T02:38:18;98741.41;;;5.17;96.69
26719;BME280;14326;50.794;6.060;2023-04-15T02:40:45;98743.19;;;5.20;96.64
26719;BME280;14326;50.794;6.060;2023-04-15T02:43:28;98738.78;;;5.17;96.89
26719;BME280;14326;50.794;6.060;2023-04-15T02:45:55;98736.81;;;5.07;96.70
26719;BME280;14326;50.794;6.060;2023-04-15T02:48:27;98757.06;;;5.08;96.74
26719;BME280;14326;50.794;6.060;2023-04-15T02:51:14;98758.84;;;5.09;96.41
26719;BME280;14326;50.794;6.060;2023-04-15T02:53:46;98758.88;;;5.11;96.87
26719;BME280;14326;50.794;6.060;2023-04-15T02:56:31;98755.53;;;5.22;96.34
26719;BME280;14326;50.794;6.060;2023-04-15T02:59:02;98758.97;;;5.17;95.68
26719;BME280;14326;50.794;6.060;2023-04-15T03:01:29;98755.50;;;5.21;95.69
26719;BME280;14326;50.794;6.060;2023-04-15T03:04:02;98758.13;;;5.18;95.29
26719;BME280;14326;50.794;6.060;2023-04-15T03:06:38;98754.44;;;5.10;95.14
26719;BME280;14326;50.794;6.060;2023-04-15T03:09:05;98757.94;;;5.09;95.20
26719;BME280;14326;50.794;6.060;2023-04-15T03:14:32;98755.13;;;4.98;95.11
26719;BME280;14326;50.794;6.060;2023-04-15T03:17:22;98760.28;;;4.92;95.06
26719;BME280;14326;50.794;6.060;2023-04-15T03:20:08;98754.00;;;4.84;94.88
26719;BME280;14326;50.794;6.060;2023-04-15T03:22:39;98758.38;;;4.83;95.13
26719;BME280;14326;50.794;6.060;2023-04-15T03:25:19;98765.28;;;4.75;95.44
26719;BME280;14326;50.794;6.060;2023-04-15T03:28:03;98759.09;;;4.75;95.25
26719;BME280;14326;50.794;6.060;2023-04-15T03:30:46;98764.16;;;4.63;95.36
26719;BME280;14326;50.794;6.060;2023-04-15T03:33:35;98765.78;;;4.56;95.72
26719;BME280;14326;50.794;6.060;2023-04-15T03:36:09;98772.66;;;4.49;96.03
26719;BME280;14326;50.794;6.060;2023-04-15T03:38:35;98773.44;;;4.44;96.14
26719;BME280;14326;50.794;6.060;2023-04-15T03:41:02;98766.34;;;4.40;97.04
26719;BME280;14326;50.794;6.060;2023-04-15T03:43:29;98770.00;;;4.46;96.75
26719;BME280;14326;50.794;6.060;2023-04-15T03:46:13;98767.19;;;4.39;96.07
26719;BME280;14326;50.794;6.060;2023-04-15T03:49:05;98766.19;;;4.32;96.17
26719;BME280;14326;50.794;6.060;2023-04-15T03:51:59;98774.94;;;4.30;96.41
26719;BME280;14326;50.794;6.060;2023-04-15T03:54:39;98774.88;;;4.28;96.70
26719;BME280;14326;50.794;6.060;2023-04-15T03:57:14;98775.81;;;4.32;97.31
26719;BME280;14326;50.794;6.060;2023-04-15T04:00:09;98773.91;;;4.25;96.87
26719;BME280;14326;50.794;6.060;2023-04-15T04:02:45;98772.09;;;4.21;97.10
26719;BME280;14326;50.794;6.060;2023-04-15T04:05:40;98789.53;;;4.16;97.08
26719;BME280;14326;50.794;6.060;2023-04-15T04:08:31;98785.94;;;4.10;96.69
26719;BME280;14326;50.794;6.060;2023-04-15T04:11:04;98792.06;;;4.11;96.96
26719;BME280;14326;50.794;6.060;2023-04-15T04:16:32;98798.94;;;4.04;96.54
26719;BME280;14326;50.794;6.060;2023-04-15T04:18:59;98802.47;;;4.06;96.82
26719;BME280;14326;50.794;6.060;2023-04-15T04:21:25;98807.88;;;4.11;97.25
26719;BME280;14326;50.794;6.060;2023-04-15T04:24:08;98808.75;;;4.11;97.59
26719;BME280;14326;50.794;6.060;2023-04-15T04:26:35;98811.31;;;4.08;97.42
26719;BME280;14326;50.794;6.060;2023-04-15T04:29:02;98810.44;;;4.09;97.08
26719;BME280;14326;50.794;6.060;2023-04-15T04:31:28;98812.09;;;4.04;96.83
26719;BME280;14326;50.794;6.060;2023-04-15T04:34:02;98817.41;;;4.06;96.91
26719;BME280;14326;50.794;6.060;2023-04-15T04:39:20;98821.84;;;4.08;97.04
26719;BME280;14326;50.794;6.060;2023-04-15T04:42:00;98819.09;;;4.04;97.03
26719;BME280;14326;50.794;6.060;2023-04-15T04:44:27;98824.31;;;4.02;97.38
26719;BME280;14326;50.794;6.060;2023-04-15T04:46:54;98831.38;;;4.03;97.31
26719;BME280;14326;50.794;6.060;2023-04-15T04:49:20;98826.16;;;4.06;97.72
26719;BME280;14326;50.794;6.060;2023-04-15T04:51:47;98833.16;;;4.04;97.36
26719;BME280;14326;50.794;6.060;2023-04-15T04:54:14;98837.47;;;4.02;97.01
26719;BME280;14326;50.794;6.060;2023-04-15T04:56:43;98831.31;;;4.00;97.74
26719;BME280;14326;50.794;6.060;2023-04-15T04:59:09;98844.34;;;3.96;97.14
26719;BME280;14326;50.794;6.060;2023-04-15T05:01:36;98837.44;;;3.99;97.00
26719;BME280;14326;50.794;6.060;2023-04-15T05:04:03;98840.22;;;4.07;96.95
26719;BME280;14326;50.794;6.060;2023-04-15T05:06:31;98838.50;;;4.09;96.51
26719;BME280;14326;50.794;6.060;2023-04-15T05:08:58;98836.69;;;4.05;96.73
26719;BME280;14326;50.794;6.060;2023-04-15T05:11:59;98841.94;;;4.06;96.85
26719;BME280;14326;50.794;6.060;2023-04-15T05:14:34;98850.78;;;4.08;96.53
26719;BME280;14326;50.794;6.060;2023-04-15T05:17:05;98854.34;;;4.10;96.22
26719;BME280;14326;50.794;6.060;2023-04-15T05:19:32;98857.78;;;4.08;96.46
26719;BME280;14326;50.794;6.060;2023-04-15T05:21:59;98853.50;;;4.13;96.40
26719;BME280;14326;50.794;6.060;2023-04-15T05:24:36;98852.66;;;4.14;96.39
26719;BME280;14326;50.794;6.060;2023-04-15T05:27:18;98862.31;;;4.15;96.79
26719;BME280;14326;50.794;6.060;2023-04-15T05:29:59;98859.78;;;4.20;97.07
26719;BME280;14326;50.794;6.060;2023-04-15T05:32:56;98866.47;;;4.44;96.02
26719;BME280;14326;50.794;6.060;2023-04-15T05:35:33;98863.09;;;4.93;94.88
26719;BME280;14326;50.794;6.060;2023-04-15T05:38:03;98882.97;;;5.23;93.10
26719;BME280;14326;50.794;6.060;2023-04-15T05:40:42;98873.31;;;5.23;91.90
26719;BME280;14326;50.794;6.060;2023-04-15T05:43:22;98880.41;;;5.27;91.64
26719;BME280;14326;50.794;6.060;2023-04-15T05:46:07;98889.91;;;5.18;92.41
26719;BME280;14326;50.794;6.060;2023-04-15T05:48:59;98887.19;;;5.15;93.72
26719;BME280;14326;50.794;6.060;2023-04-15T05:51:37;98892.53;;;5.18;93.54
26719;BME280;14326;50.794;6.060;2023-04-15T05:54:32;98885.59;;;5.23;94.32
26719;BME280;14326;50.794;6.060;2023-04-15T06:00:11;98892.91;;;5.39;94.26
26719;BME280;14326;50.794;6.060;2023-04-15T06:02:38;98897.25;;;5.37;94.08
26719;BME280;14326;50.794;6.060;2023-04-15T06:05:34;98901.72;;;5.40;94.28
26719;BME280;14326;50.794;6.060;2023-04-15T06:08:05;98910.66;;;5.48;94.68
26719;BME280;14326;50.794;6.060;2023-04-15T06:10:38;98911.63;;;5.54;94.63
26719;BME280;14326;50.794;6.060;2023-04-15T06:13:05;98917.97;;;5.64;94.05
26719;BME280;14326;50.794;6.060;2023-04-15T06:15:48;98914.56;;;5.69;94.28
26719;BME280;14326;50.794;6.060;2023-04-15T06:18:14;98921.56;;;5.69;93.38
26719;BME280;14326;50.794;6.060;2023-04-15T06:20:46;98924.28;;;5.73;92.02
26719;BME280;14326;50.794;6.060;2023-04-15T06:23:55;98935.00;;;5.83;92.46
26719;BME280;14326;50.794;6.060;2023-04-15T06:26:25;98928.22;;;5.97;93.04
26719;BME280;14326;50.794;6.060;2023-04-15T06:28:52;98940.72;;;6.08;92.70
26719;BME280;14326;50.794;6.060;2023-04-15T06:31:32;98943.53;;;6.18;93.74
26719;BME280;14326;50.794;6.060;2023-04-15T06:34:00;98952.44;;;6.26;92.70
26719;BME280;14326;50.794;6.060;2023-04-15T06:36:29;98957.00;;;6.37;92.08
26719;BME280;14326;50.794;6.060;2023-04-15T06:39:01;98951.91;;;6.49;90.65
26719;BME280;14326;50.794;6.060;2023-04-15T06:41:40;98954.75;;;6.63;90.05
26719;BME280;14326;50.794;6.060;2023-04-15T06:44:06;98966.41;;;6.76;90.66
26719;BME280;14326;50.794;6.060;2023-04-15T06:46:34;98955.97;;;6.89;89.47
26719;BME280;14326;50.794;6.060;2023-04-15T06:49:01;98965.91;;;7.06;86.55
26719;BME280;14326;50.794;6.060;2023-04-15T06:51:47;98968.91;;;7.37;87.05
26719;BME280;14326;50.794;6.060;2023-04-15T06:57:07;98967.75;;;7.94;78.62
26719;BME280;14326;50.794;6.060;2023-04-15T06:59:34;98980.91;;;7.87;77.82
26719;BME280;14326;50.794;6.060;2023-04-15T07:02:11;98986.22;;;7.91;78.66
26719;BME280;14326;50.794;6.060;2023-04-15T07:04:44;98992.50;;;7.99;77.78
26719;BME280;14326;50.794;6.060;2023-04-15T07:07:26;98991.63;;;8.02;77.31
26719;BME280;14326;50.794;6.060;2023-04-15T07:10:07;98995.03;;;7.87;77.71
26719;BME280;14326;50.794;6.060;2023-04-15T07:12:36;99001.38;;;8.07;78.31
26719;BME280;14326;50.794;6.060;2023-04-15T07:15:03;98991.78;;;8.17;76.47
26719;BME280;14326;50.794;6.060;2023-04-15T07:17:32;99005.22;;;8.38;77.07
26719;BME280;14326;50.794;6.060;2023-04-15T07:19:58;99007.31;;;8.86;76.79
26719;BME280;14326;50.794;6.060;2023-04-15T07:22:35;99010.97;;;9.03;73.99
26719;BME280;14326;50.794;6.060;2023-04-15T07:25:19;99016.38;;;9.28;72.49
26719;BME280;14326;50.794;6.060;2023-04-15T07:28:06;99021.63;;;9.16;71.89
26719;BME280;14326;50.794;6.060;2023-04-15T07:30:43;99021.75;;;9.43;71.74
26719;BME280;14326;50.794;6.060;2023-04-15T07:33:17;99032.47;;;9.67;71.35
26719;BME280;14326;50.794;6.060;2023-04-15T07:35:50;99025.38;;;9.63;71.04
26719;BME280;14326;50.794;6.060;2023-04-15T07:41:19;99034.38;;;10.62;69.92
26719;BME280;14326;50.794;6.060;2023-04-15T07:43:46;99042.38;;;10.24;69.01
26719;BME280;14326;50.794;6.060;2023-04-15T07:46:22;99046.78;;;10.27;70.43
26719;BME280;14326;50.794;6.060;2023-04-15T07:48:53;99046.81;;;10.42;71.21
26719;BME280;14326;50.794;6.060;2023-04-15T07:51:24;99053.88;;;10.61;70.09
26719;BME280;14326;50.794;6.060;2023-04-15T07:53:53;99052.94;;;11.16;69.48
26719;BME280;14326;50.794;6.060;2023-04-15T07:56:19;99059.13;;;11.28;69.80
26719;BME280;14326;50.794;6.060;2023-04-15T07:58:46;99055.50;;;11.54;68.57
26719;BME280;14326;50.794;6.060;2023-04-15T08:01:21;99064.38;;;11.49;65.55
26719;BME280;14326;50.794;6.060;2023-04-15T08:03:48;99067.09;;;11.36;64.75
26719;BME280;14326;50.794;6.060;2023-04-15T08:06:16;99072.41;;;11.34;65.74
26719;BME280;14326;50.794;6.060;2023-04-15T08:08:50;99083.94;;;11.33;66.25
26719;BME280;14326;50.794;6.060;2023-04-15T08:11:18;99083.94;;;11.39;66.41
26719;BME280;14326;50.794;6.060;2023-04-15T08:13:45;99089.22;;;11.52;66.25
26719;BME280;14326;50.794;6.060;2023-04-15T08:16:17;99084.75;;;11.55;64.97
26719;BME280;14326;50.794;6.060;2023-04-15T08:18:57;99090.94;;;11.68;65.09
26719;BME280;14326;50.794;6.060;2023-04-15T08:21:26;99094.44;;;11.88;66.30
26719;BME280;14326;50.794;6.060;2023-04-15T08:23:55;99089.00;;;12.12;65.84
26719;BME280;14326;50.794;6.060;2023-04-15T08:26:25;99088.81;;;12.38;65.49
26719;BME280;14326;50.794;6.060;2023-04-15T08:28:52;99086.91;;;12.60;64.08
26719;BME280;14326;50.794;6.060;2023-04-15T08:31:19;99094.03;;;12.58;63.19
26719;BME280;14326;50.794;6.060;2023-04-15T08:33:51;99106.78;;;12.09;65.84
26719;BME280;14326;50.794;6.060;2023-04-15T08:36:22;99108.56;;;12.04;66.90
26719;BME280;14326;50.794;6.060;2023-04-15T08:38:50;99108.53;;;12.19;66.67
26719;BME280;14326;50.794;6.060;2023-04-15T08:41:20;99101.53;;;11.92;66.50
26719;BME280;14326;50.794;6.060;2023-04-15T08:43:52;99106.91;;;11.68;68.10
26719;BME280;14326;50.794;6.060;2023-04-15T08:46:31;99122.06;;;11.58;69.73
26719;BME280;14326;50.794;6.060;2023-04-15T08:49:15;99115.84;;;11.58;70.30
26719;BME280;14326;50.794;6.060;2023-04-15T08:51:46;99121.97;;;11.95;68.46
26719;BME280;14326;50.794;6.060;2023-04-15T08:54:14;99124.53;;;12.11;66.53
26719;BME280;14326;50.794;6.060;2023-04-15T08:56:41;99126.34;;;12.03;67.07
26719;BME280;14326;50.794;6.060;2023-04-15T08:59:10;99124.47;;;12.23;67.33
26719;BME280;14326;50.794;6.060;2023-04-15T09:01:37;99133.22;;;12.47;68.04
26719;BME280;14326;50.794;6.060;2023-04-15T09:04:11;99138.50;;;12.56;67.17
26719;BME280;14326;50.794;6.060;2023-04-15T09:06:38;99134.81;;;12.73;65.47
26719;BME280;14326;50.794;6.060;2023-04-15T09:09:05;99135.56;;;12.91;64.88
26719;BME280;14326;50.794;6.060;2023-04-15T09:11:33;99141.69;;;13.03;64.86
26719;BME280;14326;50.794;6.060;2023-04-15T09:14:01;99140.00;;;12.93;64.32
26719;BME280;14326;50.794;6.060;2023-04-15T09:16:28;99152.28;;;13.19;65.03
26719;BME280;14326;50.794;6.060;2023-04-15T09:18:55;99149.53;;;13.26;62.76
26719;BME280;14326;50.794;6.060;2023-04-15T09:21:22;99159.28;;;13.32;63.80
26719;BME280;14326;50.794;6.060;2023-04-15T09:24:07;99154.75;;;13.41;64.50
26719;BME280;14326;50.794;6.060;2023-04-15T09:26:39;99162.81;;;13.37;64.28
26719;BME280;14326;50.794;6.060;2023-04-15T09:29:09;99169.94;;;13.35;64.36
26719;BME280;14326;50.794;6.060;2023-04-15T09:31:40;99177.78;;;13.53;62.49
26719;BME280;14326;50.794;6.060;2023-04-15T09:34:16;99173.34;;;13.50;57.04
26719;BME280;14326;50.794;6.060;2023-04-15T09:36:54;99171.78;;;13.28;57.23
26719;BME280;14326;50.794;6.060;2023-04-15T09:39:24;99170.56;;;13.61;59.41
26719;BME280;14326;50.794;6.060;2023-04-15T09:42:05;99180.34;;;13.64;58.65
26719;BME280;14326;50.794;6.060;2023-04-15T09:44:32;99186.06;;;13.23;60.43
26719;BME280;14326;50.794;6.060;2023-04-15T09:50:38;99197.59;;;13.28;60.79
26719;BME280;14326;50.794;6.060;2023-04-15T09:53:24;99192.19;;;13.37;56.79
26719;BME280;14326;50.794;6.060;2023-04-15T09:55:52;99198.44;;;13.33;54.81
26719;BME280;14326;50.794;6.060;2023-04-15T09:58:22;99203.72;;;13.39;54.02
26719;BME280;14326;50.794;6.060;2023-04-15T10:00:55;99203.63;;;13.49;54.51
26719;BME280;14326;50.794;6.060;2023-04-15T10:03:33;99205.00;;;13.91;54.38
26719;BME280;14326;50.794;6.060;2023-04-15T10:06:30;99218.41;;;13.85;56.13
26719;BME280;14326;50.794;6.060;2023-04-15T10:09:00;99217.53;;;13.86;53.82
26719;BME280;14326;50.794;6.060;2023-04-15T10:11:28;99219.28;;;13.89;53.73
26719;BME280;14326;50.794;6.060;2023-04-15T10:14:17;99224.56;;;13.95;55.58
26719;BME280;14326;50.794;6.060;2023-04-15T10:16:51;99217.31;;;14.05;54.71
26719;BME280;14326;50.794;6.060;2023-04-15T10:19:25;99216.97;;;14.37;53.05
26719;BME280;14326;50.794;6.060;2023-04-15T10:21:55;99223.19;;;14.40;51.61
26719;BME280;14326;50.794;6.060;2023-04-15T10:24:24;99229.44;;;14.39;47.31
26719;BME280;14326;50.794;6.060;2023-04-15T10:26:52;99233.78;;;14.48;48.38
26719;BME280;14326;50.794;6.060;2023-04-15T10:29:31;99229.34;;;14.44;48.41
26719;BME280;14326;50.794;6.060;2023-04-15T10:32:10;99230.56;;;14.18;49.19
26719;BME280;14326;50.794;6.060;2023-04-15T10:34:56;99236.75;;;14.22;50.30
26719;BME280;14326;50.794;6.060;2023-04-15T10:37:46;99241.28;;;14.15;50.37
26719;BME280;14326;50.794;6.060;2023-04-15T10:40:38;99234.88;;;14.27;51.08
26719;BME280;14326;50.794;6.060;2023-04-15T10:43:06;99234.00;;;14.26;51.11
26719;BME280;14326;50.794;6.060;2023-04-15T10:45:36;99245.78;;;14.10;52.59
26719;BME280;14326;50.794;6.060;2023-04-15T10:51:30;99252.78;;;14.23;55.30
26719;BME280;14326;50.794;6.060;2023-04-15T10:54:08;99256.47;;;14.13;50.16
26719;BME280;14326;50.794;6.060;2023-04-15T10:56:41;99265.28;;;14.20;49.51
26719;BME280;14326;50.794;6.060;2023-04-15T10:59:08;99258.00;;;14.37;50.73
26719;BME280;14326;50.794;6.060;2023-04-15T11:01:53;99263.47;;;14.25;50.76
26719;BME280;14326;50.794;6.060;2023-04-15T11:04:53;99260.03;;;14.12;50.88
26719;BME280;14326;50.794;6.060;2023-04-15T11:07:35;99271.72;;;14.04;48.44
26719;BME280;14326;50.794;6.060;2023-04-15T11:10:03;99272.59;;;14.03;47.87
26719;BME280;14326;50.794;6.060;2023-04-15T11:12:53;99272.72;;;13.93;48.55
26719;BME280;14326;50.794;6.060;2023-04-15T11:15:43;99272.72;;;13.95;48.95
26719;BME280;14326;50.794;6.060;2023-04-15T11:18:25;99278.72;;;14.17;50.25
26719;BME280;14326;50.794;6.060;2023-04-15T11:20:59;99276.75;;;14.32;50.40
26719;BME280;14326;50.794;6.060;2023-04-15T11:23:41;99270.44;;;14.41;50.21
26719;BME280;14326;50.794;6.060;2023-04-15T11:26:11;99286.38;;;14.50;51.27
26719;BME280;14326;50.794;6.060;2023-04-15T11:28:39;99288.50;;;14.19;51.76
26719;BME280;14326;50.794;6.060;2023-04-15T11:31:08;99293.84;;;14.19;50.10
26719;BME280;14326;50.794;6.060;2023-04-15T11:33:43;99299.22;;;14.15;48.58
26719;BME280;14326;50.794;6.060;2023-04-15T11:36:29;99299.41;;;14.00;48.33
26719;BME280;14326;50.794;6.060;2023-04-15T11:39:07;99298.72;;;13.78;48.56
26719;BME280;14326;50.794;6.060;2023-04-15T11:41:34;99301.50;;;13.61;49.42
26719;BME280;14326;50.794;6.060;2023-04-15T11:44:01;99305.91;;;13.71;50.77
26719;BME280;14326;50.794;6.060;2023-04-15T11:46:28;99309.25;;;13.93;50.88
26719;BME280;14326;50.794;6.060;2023-04-15T11:49:06;99319.78;;;14.13;51.81
26719;BME280;14326;50.794;6.060;2023-04-15T11:51:33;99316.44;;;13.89;51.54
26719;BME280;14326;50.794;6.060;2023-04-15T11:54:00;99316.38;;;13.92;51.89
26719;BME280;14326;50.794;6.060;2023-04-15T11:56:26;99323.72;;;13.68;52.78
26719;BME280;14326;50.794;6.060;2023-04-15T11:58:54;99323.81;;;13.59;53.05
26719;BME280;14326;50.794;6.060;2023-04-15T12:01:32;99313.13;;;13.59;53.13
26719;BME280;14326;50.794;6.060;2023-04-15T12:04:26;99333.63;;;13.55;52.88
26719;BME280;14326;50.794;6.060;2023-04-15T12:07:03;99334.56;;;13.54;54.17
26719;BME280;14326;50.794;6.060;2023-04-15T12:09:36;99341.72;;;13.47;54.79
26719;BME280;14326;50.794;6.060;2023-04-15T12:12:30;99335.56;;;13.36;54.88
26719;BME280;14326;50.794;6.060;2023-04-15T12:14:57;99337.34;;;13.33;56.19
26719;BME280;14326;50.794;6.060;2023-04-15T12:17:24;99340.84;;;13.44;55.55
26719;BME280;14326;50.794;6.060;2023-04-15T12:20:16;99338.13;;;13.53;56.17
26719;BME280;14326;50.794;6.060;2023-04-15T12:22:47;99343.41;;;13.58;58.28
26719;BME280;14326;50.794;6.060;2023-04-15T12:25:14;99354.97;;;13.61;57.63
26719;BME280;14326;50.794;6.060;2023-04-15T12:27:40;99346.94;;;13.66;58.30
26719;BME280;14326;50.794;6.060;2023-04-15T12:30:11;99356.69;;;13.71;57.85
26719;BME280;14326;50.794;6.060;2023-04-15T12:32:37;99360.25;;;13.72;58.65
26719;BME280;14326;50.794;6.060;2023-04-15T12:35:06;99364.75;;;13.62;59.07
26719;BME280;14326;50.794;6.060;2023-04-15T12:37:34;99368.28;;;13.67;59.23
26719;BME280;14326;50.794;6.060;2023-04-15T12:40:24;99367.50;;;13.51;57.21
26719;BME280;14326;50.794;6.060;2023-04-15T12:43:15;99371.06;;;13.53;58.71
26719;BME280;14326;50.794;6.060;2023-04-15T12:48:39;99386.22;;;13.50;59.39
26719;BME280;14326;50.794;6.060;2023-04-15T12:51:08;99388.88;;;13.50;59.22
26719;BME280;14326;50.794;6.060;2023-04-15T12:53:37;99395.13;;;13.50;60.81
26719;BME280;14326;50.794;6.060;2023-04-15T12:56:04;99398.69;;;13.52;59.97
26719;BME280;14326;50.794;6.060;2023-04-15T12:58:31;99396.94;;;13.48;58.99
26719;BME280;14326;50.794;6.060;2023-04-15T13:00:57;99408.53;;;13.44;59.56
26719;BME280;14326;50.794;6.060;2023-04-15T13:03:31;99409.47;;;13.31;59.16
26719;BME280;14326;50.794;6.060;2023-04-15T13:06:14;99411.25;;;13.35;60.47
26719;BME280;14326;50.794;6.060;2023-04-15T13:08:45;99410.16;;;13.68;61.41
26719;BME280;14326;50.794;6.060;2023-04-15T13:11:11;99410.81;;;14.01;57.76
26719;BME280;14326;50.794;6.060;2023-04-15T13:13:38;99406.31;;;14.06;58.35
26719;BME280;14326;50.794;6.060;2023-04-15T13:16:08;99409.78;;;14.14;57.37
26719;BME280;14326;50.794;6.060;2023-04-15T13:18:42;99418.84;;;13.96;57.71
26719;BME280;14326;50.794;6.060;2023-04-15T13:21:09;99415.31;;;13.96;56.82
26719;BME280;14326;50.794;6.060;2023-04-15T13:23:37;99420.53;;;14.11;55.92
26719;BME280;14326;50.794;6.060;2023-04-15T13:26:11;99429.63;;;13.85;56.61
26719;BME280;14326;50.794;6.060;2023-04-15T13:28:47;99433.31;;;13.69;58.70
26719;BME280;14326;50.794;6.060;2023-04-15T13:31:23;99442.19;;;13.76;57.63
26719;BME280;14326;50.794;6.060;2023-04-15T13:33:50;99436.88;;;13.68;58.58
26719;BME280;14326;50.794;6.060;2023-04-15T13:36:17;99434.22;;;13.71;59.09
26719;BME280;14326;50.794;6.060;2023-04-15T13:38:49;99443.91;;;13.84;58.09
26719;BME280;14326;50.794;6.060;2023-04-15T13:41:31;99441.84;;;14.23;59.69
26719;BME280;14326;50.794;6.060;2023-04-15T13:43:58;99444.69;;;13.99;58.10
26719;BME280;14326;50.794;6.060;2023-04-15T13:46:25;99449.34;;;13.72;59.56
26719;BME280;14326;50.794;6.060;2023-04-15T13:48:52;99447.50;;;13.80;59.74
26719;BME280;14326;50.794;6.060;2023-04-15T13:51:19;99447.31;;;14.08;54.73
26719;BME280;14326;50.794;6.060;2023-04-15T13:53:45;99456.25;;;14.02;54.38
26719;BME280;14326;50.794;6.060;2023-04-15T13:56:13;99452.75;;;13.96;56.47
26719;BME280;14326;50.794;6.060;2023-04-15T13:58:44;99452.81;;;13.89;56.59
26719;BME280;14326;50.794;6.060;2023-04-15T14:01:12;99463.41;;;13.99;57.18
26719;BME280;14326;50.794;6.060;2023-04-15T14:03:38;99462.53;;;14.00;55.94
26719;BME280;14326;50.794;6.060;2023-04-15T14:06:05;99473.31;;;13.87;59.31
26719;BME280;14326;50.794;6.060;2023-04-15T14:08:32;99472.38;;;13.94;58.09
26719;BME280;14326;50.794;6.060;2023-04-15T14:10:59;99475.09;;;13.90;55.97
26719;BME280;14326;50.794;6.060;2023-04-15T14:13:25;99470.66;;;13.83;56.31
26719;BME280;14326;50.794;6.060;2023-04-15T14:15:55;99470.66;;;13.83;56.71
26719;BME280;14326;50.794;6.060;2023-04-15T14:18:22;99475.91;;;13.98;57.52
26719;BME280;14326;50.794;6.060;2023-04-15T14:20:48;99469.53;;;14.17;56.72
26719;BME280;14326;50.794;6.060;2023-04-15T14:23:15;99480.38;;;13.94;55.95